CheckWX is a tool to help pilots better visualize weather data.  It is not intended as a substitute for an official pre-flight weather briefing.

12:01:15 UTC

ETSL METAR
Lechfeld Airport
Germany
Current

41 mins ago

ETSL 251120Z 29017KT 9999 VCSH BKN045 BKN160 08/M05 Q1019 BLU BLU
Observed
Mar-25 @ 11:20 UTC
Wind
  • 290° at 17 KTS
Visibility
10,000+ meters
Flight Rules
VFR
Cloud Levels
  • Broken at 4,500' AGL
  • Broken at 16,000' AGL
Temperature
C / 46°F
Dewpoint
-5°C / 23°F
Humidity
40%
Altimeter
30.09" Hg
Pressure
1018.92 hPa
Previous

2 hours ago

ETSL 251020Z 25014G26KT 9999 FEW040 BKN150 07/M04 Q1020 BLU BLU+ TEMPO BLU
Observed
Mar-25 @ 10:20 UTC
Wind
  • 250° at 14 KTS
  • Gusting to 26 KTS
Visibility
10,000+ meters
Flight Rules
VFR
Cloud Levels
  • Few at 4,000' AGL
  • Broken at 15,000' AGL
Temperature
C / 45°F
Dewpoint
-4°C / 25°F
Humidity
46%
Altimeter
30.12" Hg
Pressure
1019.92 hPa
Previous

3 hours ago

ETSL 250920Z 30014KT 9999 SCT035 BKN180 06/M03 Q1020 BLU BLU+ TEMPO BLU
Observed
Mar-25 @ 09:20 UTC
Wind
  • 300° at 14 KTS
Visibility
10,000+ meters
Flight Rules
VFR
Cloud Levels
  • Scattered at 3,500' AGL
  • Broken at 18,000' AGL
Temperature
C / 43°F
Dewpoint
-3°C / 27°F
Humidity
53%
Altimeter
30.12" Hg
Pressure
1019.92 hPa